sensor_id;sensor_type;location;lat;lon;timestamp;pressure;altitude;pressure_sealevel;temperature;humidity
41866;BME280;27539;43.222;27.558;2023-05-08T00:00:21;100849.63;;;11.54;100.00
41866;BME280;27539;43.222;27.558;2023-05-08T00:02:46;100865.44;;;11.65;100.00
41866;BME280;27539;43.222;27.558;2023-05-08T00:05:12;100813.00;;;11.34;100.00
41866;BME280;27539;43.222;27.558;2023-05-08T00:07:38;100807.53;;;11.39;100.00
41866;BME280;27539;43.222;27.558;2023-05-08T00:10:05;100862.44;;;11.55;100.00
41866;BME280;27539;43.222;27.558;2023-05-08T00:12:31;100830.56;;;11.22;100.00
41866;BME280;27539;43.222;27.558;2023-05-08T00:14:56;100860.97;;;11.24;100.00
41866;BME280;27539;43.222;27.558;2023-05-08T00:17:22;100880.94;;;10.97;100.00
41866;BME280;27539;43.222;27.558;2023-05-08T00:19:47;100894.41;;;10.89;100.00
41866;BME280;27539;43.222;27.558;2023-05-08T00:22:13;100840.41;;;10.66;100.00
41866;BME280;27539;43.222;27.558;2023-05-08T00:24:38;100879.38;;;10.78;100.00
41866;BME280;27539;43.222;27.558;2023-05-08T00:27:04;100875.13;;;10.87;100.00
41866;BME280;27539;43.222;27.558;2023-05-08T00:29:29;100857.69;;;10.56;100.00
41866;BME280;27539;43.222;27.558;2023-05-08T00:31:55;100882.66;;;10.87;100.00
41866;BME280;27539;43.222;27.558;2023-05-08T00:34:20;100875.88;;;11.06;100.00
41866;BME280;27539;43.222;27.558;2023-05-08T00:36:46;100876.25;;;10.86;100.00
41866;BME280;27539;43.222;27.558;2023-05-08T00:39:11;100873.50;;;10.32;100.00
41866;BME280;27539;43.222;27.558;2023-05-08T00:41:37;100884.03;;;10.12;100.00
41866;BME280;27539;43.222;27.558;2023-05-08T00:44:03;100855.22;;;9.94;100.00
41866;BME280;27539;43.222;27.558;2023-05-08T00:46:29;100877.25;;;10.38;100.00
41866;BME280;27539;43.222;27.558;2023-05-08T00:48:55;100872.94;;;10.54;100.00
41866;BME280;27539;43.222;27.558;2023-05-08T00:51:21;100888.91;;;10.70;100.00
41866;BME280;27539;43.222;27.558;2023-05-08T00:53:47;100876.09;;;10.69;100.00
41866;BME280;27539;43.222;27.558;2023-05-08T00:56:14;100891.00;;;10.87;100.00
41866;BME280;27539;43.222;27.558;2023-05-08T00:58:41;100881.56;;;10.76;100.00
41866;BME280;27539;43.222;27.558;2023-05-08T01:01:07;100835.06;;;10.41;100.00
41866;BME280;27539;43.222;27.558;2023-05-08T01:03:34;100834.38;;;10.27;100.00
41866;BME280;27539;43.222;27.558;2023-05-08T01:06:00;100878.28;;;10.79;100.00
41866;BME280;27539;43.222;27.558;2023-05-08T01:08:26;100869.31;;;10.77;100.00
41866;BME280;27539;43.222;27.558;2023-05-08T01:16:16;100850.78;;;10.71;100.00
41866;BME280;27539;43.222;27.558;2023-05-08T01:18:51;100844.28;;;10.65;100.00
41866;BME280;27539;43.222;27.558;2023-05-08T01:21:37;100842.31;;;10.66;100.00
41866;BME280;27539;43.222;27.558;2023-05-08T01:27:27;100875.38;;;10.62;100.00
41866;BME280;27539;43.222;27.558;2023-05-08T01:32:55;100848.88;;;10.71;100.00
41866;BME280;27539;43.222;27.558;2023-05-08T01:35:57;100849.34;;;10.80;100.00
41866;BME280;27539;43.222;27.558;2023-05-08T01:38:55;100857.94;;;10.90;100.00
41866;BME280;27539;43.222;27.558;2023-05-08T01:41:25;100855.44;;;10.89;100.00
41866;BME280;27539;43.222;27.558;2023-05-08T01:46:32;100812.44;;;10.37;100.00
41866;BME280;27539;43.222;27.558;2023-05-08T01:49:10;100815.94;;;10.33;100.00
41866;BME280;27539;43.222;27.558;2023-05-08T01:51:42;100830.63;;;10.22;100.00
41866;BME280;27539;43.222;27.558;2023-05-08T01:54:14;100856.81;;;10.32;100.00
41866;BME280;27539;43.222;27.558;2023-05-08T01:56:42;100865.66;;;10.41;100.00
41866;BME280;27539;43.222;27.558;2023-05-08T01:59:10;100814.06;;;10.15;100.00
41866;BME280;27539;43.222;27.558;2023-05-08T02:01:38;100849.84;;;10.23;100.00
41866;BME280;27539;43.222;27.558;2023-05-08T02:04:05;100853.50;;;10.24;100.00
41866;BME280;27539;43.222;27.558;2023-05-08T02:06:32;100818.47;;;9.92;100.00
41866;BME280;27539;43.222;27.558;2023-05-08T02:08:59;100848.88;;;10.17;100.00
41866;BME280;27539;43.222;27.558;2023-05-08T02:11:25;100862.28;;;10.39;100.00
41866;BME280;27539;43.222;27.558;2023-05-08T02:13:52;100830.31;;;10.30;100.00
41866;BME280;27539;43.222;27.558;2023-05-08T02:16:19;100855.13;;;10.31;100.00
41866;BME280;27539;43.222;27.558;2023-05-08T02:18:50;100849.78;;;10.30;100.00
41866;BME280;27539;43.222;27.558;2023-05-08T02:21:17;100826.13;;;10.09;100.00
41866;BME280;27539;43.222;27.558;2023-05-08T02:23:44;100858.97;;;10.30;100.00
41866;BME280;27539;43.222;27.558;2023-05-08T02:26:12;100808.22;;;10.05;100.00
41866;BME280;27539;43.222;27.558;2023-05-08T02:28:40;100842.56;;;10.10;100.00
41866;BME280;27539;43.222;27.558;2023-05-08T02:31:08;100800.16;;;9.73;100.00
41866;BME280;27539;43.222;27.558;2023-05-08T02:33:34;100836.19;;;9.80;100.00
41866;BME280;27539;43.222;27.558;2023-05-08T02:36:01;100850.88;;;9.99;100.00
41866;BME280;27539;43.222;27.558;2023-05-08T02:38:28;100847.41;;;10.03;100.00
41866;BME280;27539;43.222;27.558;2023-05-08T02:40:56;100815.84;;;9.67;100.00
41866;BME280;27539;43.222;27.558;2023-05-08T02:43:25;100846.66;;;9.66;100.00
41866;BME280;27539;43.222;27.558;2023-05-08T02:46:06;100850.28;;;9.48;100.00
41866;BME280;27539;43.222;27.558;2023-05-08T02:48:49;100856.25;;;9.33;100.00
41866;BME280;27539;43.222;27.558;2023-05-08T02:54:13;100826.59;;;9.64;100.00
41866;BME280;27539;43.222;27.558;2023-05-08T02:57:07;100836.56;;;9.83;100.00
41866;BME280;27539;43.222;27.558;2023-05-08T02:59:38;100793.00;;;9.65;100.00
41866;BME280;27539;43.222;27.558;2023-05-08T03:02:09;100804.97;;;9.66;100.00
41866;BME280;27539;43.222;27.558;2023-05-08T03:04:42;100801.81;;;9.62;100.00
41866;BME280;27539;43.222;27.558;2023-05-08T03:07:10;100850.00;;;9.98;100.00
41866;BME280;27539;43.222;27.558;2023-05-08T03:09:46;100837.44;;;9.95;100.00
41866;BME280;27539;43.222;27.558;2023-05-08T03:12:19;100815.41;;;9.82;100.00
41866;BME280;27539;43.222;27.558;2023-05-08T03:15:02;100810.34;;;9.79;100.00
41866;BME280;27539;43.222;27.558;2023-05-08T03:17:31;100847.16;;;10.05;100.00
41866;BME280;27539;43.222;27.558;2023-05-08T03:20:03;100858.34;;;9.68;100.00
41866;BME280;27539;43.222;27.558;2023-05-08T03:22:31;100822.91;;;9.51;100.00
41866;BME280;27539;43.222;27.558;2023-05-08T03:25:00;100852.78;;;9.86;100.00
41866;BME280;27539;43.222;27.558;2023-05-08T03:27:28;100860.91;;;10.00;100.00
41866;BME280;27539;43.222;27.558;2023-05-08T03:29:55;100848.59;;;10.07;100.00
41866;BME280;27539;43.222;27.558;2023-05-08T03:32:24;100850.34;;;10.20;100.00
41866;BME280;27539;43.222;27.558;2023-05-08T03:34:51;100813.56;;;10.06;100.00
41866;BME280;27539;43.222;27.558;2023-05-08T03:37:18;100857.50;;;9.98;100.00
41866;BME280;27539;43.222;27.558;2023-05-08T03:39:44;100830.41;;;9.81;100.00
41866;BME280;27539;43.222;27.558;2023-05-08T03:42:10;100869.03;;;10.01;100.00
41866;BME280;27539;43.222;27.558;2023-05-08T03:44:51;100864.53;;;10.00;100.00
41866;BME280;27539;43.222;27.558;2023-05-08T03:47:19;100852.97;;;10.03;100.00
41866;BME280;27539;43.222;27.558;2023-05-08T03:49:45;100882.44;;;10.34;100.00
41866;BME280;27539;43.222;27.558;2023-05-08T03:52:12;100857.19;;;10.36;100.00
41866;BME280;27539;43.222;27.558;2023-05-08T03:54:38;100885.25;;;10.58;100.00
41866;BME280;27539;43.222;27.558;2023-05-08T03:57:03;100835.78;;;10.36;100.00
41866;BME280;27539;43.222;27.558;2023-05-08T04:02:43;100872.22;;;11.06;100.00
41866;BME280;27539;43.222;27.558;2023-05-08T04:05:30;100881.69;;;11.16;100.00
41866;BME280;27539;43.222;27.558;2023-05-08T04:08:02;100882.88;;;11.32;100.00
41866;BME280;27539;43.222;27.558;2023-05-08T04:10:41;100887.69;;;11.37;100.00
41866;BME280;27539;43.222;27.558;2023-05-08T04:13:13;100828.88;;;11.21;100.00
41866;BME280;27539;43.222;27.558;2023-05-08T04:18:28;100867.78;;;11.57;100.00
41866;BME280;27539;43.222;27.558;2023-05-08T04:20:54;100867.16;;;11.66;100.00
41866;BME280;27539;43.222;27.558;2023-05-08T04:23:21;100823.84;;;11.47;100.00
41866;BME280;27539;43.222;27.558;2023-05-08T04:25:48;100844.88;;;11.66;100.00
41866;BME280;27539;43.222;27.558;2023-05-08T04:28:16;100874.44;;;11.96;100.00
41866;BME280;27539;43.222;27.558;2023-05-08T04:30:42;100826.38;;;11.89;100.00
41866;BME280;27539;43.222;27.558;2023-05-08T04:33:08;100841.50;;;12.22;100.00
41866;BME280;27539;43.222;27.558;2023-05-08T04:35:35;100864.00;;;12.49;100.00
41866;BME280;27539;43.222;27.558;2023-05-08T04:38:01;100857.66;;;12.53;100.00
41866;BME280;27539;43.222;27.558;2023-05-08T04:40:26;100875.31;;;12.76;100.00
41866;BME280;27539;43.222;27.558;2023-05-08T04:42:52;100859.00;;;12.85;100.00
41866;BME280;27539;43.222;27.558;2023-05-08T04:45:18;100856.88;;;12.92;100.00
41866;BME280;27539;43.222;27.558;2023-05-08T04:47:43;100845.44;;;12.93;100.00
41866;BME280;27539;43.222;27.558;2023-05-08T04:50:09;100821.34;;;12.87;100.00
41866;BME280;27539;43.222;27.558;2023-05-08T04:52:35;100834.09;;;13.00;100.00
41866;BME280;27539;43.222;27.558;2023-05-08T04:55:00;100874.84;;;13.18;100.00
41866;BME280;27539;43.222;27.558;2023-05-08T04:57:26;100873.94;;;13.29;100.00
41866;BME280;27539;43.222;27.558;2023-05-08T04:59:51;100845.03;;;13.24;100.00
41866;BME280;27539;43.222;27.558;2023-05-08T05:02:17;100828.78;;;13.21;100.00
41866;BME280;27539;43.222;27.558;2023-05-08T05:04:42;100848.88;;;13.34;100.00
41866;BME280;27539;43.222;27.558;2023-05-08T05:07:08;100874.16;;;13.45;100.00
41866;BME280;27539;43.222;27.558;2023-05-08T05:09:33;100874.16;;;13.45;100.00
41866;BME280;27539;43.222;27.558;2023-05-08T05:12:04;63504.72;;;-145.93;100.00
41866;BME280;27539;43.222;27.558;2023-05-08T05:14:30;100866.16;;;13.53;100.00
41866;BME280;27539;43.222;27.558;2023-05-08T05:16:55;100830.22;;;13.40;100.00
41866;BME280;27539;43.222;27.558;2023-05-08T05:19:21;100810.97;;;13.44;100.00
41866;BME280;27539;43.222;27.558;2023-05-08T05:21:46;100823.25;;;13.34;100.00
41866;BME280;27539;43.222;27.558;2023-05-08T05:24:12;63504.72;;;-145.93;100.00
41866;BME280;27539;43.222;27.558;2023-05-08T05:26:37;63504.72;;;-145.93;100.00
41866;BME280;27539;43.222;27.558;2023-05-08T05:29:03;63504.72;;;-145.93;100.00
41866;BME280;27539;43.222;27.558;2023-05-08T05:31:28;100803.84;;;13.80;100.00
41866;BME280;27539;43.222;27.558;2023-05-08T05:33:54;100856.38;;;14.27;100.00
41866;BME280;27539;43.222;27.558;2023-05-08T05:36:20;100833.34;;;14.20;100.00
41866;BME280;27539;43.222;27.558;2023-05-08T05:38:46;100812.09;;;14.24;100.00
41866;BME280;27539;43.222;27.558;2023-05-08T05:41:11;100858.84;;;14.23;100.00
41866;BME280;27539;43.222;27.558;2023-05-08T05:43:37;100803.81;;;14.02;100.00
41866;BME280;27539;43.222;27.558;2023-05-08T05:46:06;100803.81;;;14.02;100.00
41866;BME280;27539;43.222;27.558;2023-05-08T05:48:32;100830.91;;;14.29;100.00
41866;BME280;27539;43.222;27.558;2023-05-08T05:50:57;100856.44;;;14.64;100.00
41866;BME280;27539;43.222;27.558;2023-05-08T05:53:22;100832.84;;;14.87;100.00
41866;BME280;27539;43.222;27.558;2023-05-08T05:55:48;100838.25;;;15.04;100.00
41866;BME280;27539;43.222;27.558;2023-05-08T05:58:13;100837.53;;;15.24;100.00
41866;BME280;27539;43.222;27.558;2023-05-08T06:00:40;100861.19;;;15.44;100.00
41866;BME280;27539;43.222;27.558;2023-05-08T06:03:05;100827.81;;;15.42;100.00
41866;BME280;27539;43.222;27.558;2023-05-08T06:05:31;100795.53;;;15.40;100.00
41866;BME280;27539;43.222;27.558;2023-05-08T06:07:56;100795.53;;;15.40;100.00
41866;BME280;27539;43.222;27.558;2023-05-08T06:10:22;100813.69;;;15.85;100.00
41866;BME280;27539;43.222;27.558;2023-05-08T06:12:47;100857.28;;;16.28;100.00
41866;BME280;27539;43.222;27.558;2023-05-08T06:15:13;100848.03;;;16.28;100.00
41866;BME280;27539;43.222;27.558;2023-05-08T06:17:39;100819.97;;;16.43;100.00
41866;BME280;27539;43.222;27.558;2023-05-08T06:20:05;100815.19;;;16.49;100.00
41866;BME280;27539;43.222;27.558;2023-05-08T06:22:31;100833.72;;;16.65;100.00
41866;BME280;27539;43.222;27.558;2023-05-08T06:24:57;100871.66;;;17.09;100.00
41866;BME280;27539;43.222;27.558;2023-05-08T06:27:22;100815.47;;;16.98;100.00
41866;BME280;27539;43.222;27.558;2023-05-08T06:29:49;100853.59;;;17.30;100.00
41866;BME280;27539;43.222;27.558;2023-05-08T06:32:18;100856.19;;;17.11;100.00
41866;BME280;27539;43.222;27.558;2023-05-08T06:34:44;100851.66;;;17.25;100.00
41866;BME280;27539;43.222;27.558;2023-05-08T06:37:10;100801.94;;;17.16;100.00
41866;BME280;27539;43.222;27.558;2023-05-08T06:39:35;100819.59;;;17.32;99.48
41866;BME280;27539;43.222;27.558;2023-05-08T06:42:01;100827.97;;;17.47;95.82
41866;BME280;27539;43.222;27.558;2023-05-08T06:44:26;100828.69;;;17.78;99.89
41866;BME280;27539;43.222;27.558;2023-05-08T06:46:52;100793.69;;;17.35;95.07
41866;BME280;27539;43.222;27.558;2023-05-08T06:49:18;100837.25;;;17.42;98.52
41866;BME280;27539;43.222;27.558;2023-05-08T06:51:43;100793.88;;;17.59;100.00
41866;BME280;27539;43.222;27.558;2023-05-08T06:54:09;100841.13;;;17.62;96.03
41866;BME280;27539;43.222;27.558;2023-05-08T06:56:34;100811.06;;;17.52;95.44
41866;BME280;27539;43.222;27.558;2023-05-08T06:59:00;100827.88;;;17.67;91.51
41866;BME280;27539;43.222;27.558;2023-05-08T07:01:26;100798.66;;;17.63;94.31
41866;BME280;27539;43.222;27.558;2023-05-08T07:03:51;100819.69;;;18.26;96.46
41866;BME280;27539;43.222;27.558;2023-05-08T07:06:17;100761.19;;;18.12;90.58
41866;BME280;27539;43.222;27.558;2023-05-08T07:08:42;100811.31;;;18.10;91.71
41866;BME280;27539;43.222;27.558;2023-05-08T07:11:08;100821.03;;;18.68;92.64
41866;BME280;27539;43.222;27.558;2023-05-08T07:13:37;100819.38;;;18.96;80.91
41866;BME280;27539;43.222;27.558;2023-05-08T07:16:08;100818.81;;;18.99;78.35
41866;BME280;27539;43.222;27.558;2023-05-08T07:18:35;100840.97;;;18.82;78.07
41866;BME280;27539;43.222;27.558;2023-05-08T07:21:00;100823.78;;;18.73;77.92
41866;BME280;27539;43.222;27.558;2023-05-08T07:23:26;100826.47;;;18.20;77.41
41866;BME280;27539;43.222;27.558;2023-05-08T07:25:52;100773.19;;;17.89;79.87
41866;BME280;27539;43.222;27.558;2023-05-08T07:28:18;100829.44;;;17.99;79.70
41866;BME280;27539;43.222;27.558;2023-05-08T07:30:44;100822.41;;;17.97;77.86
41866;BME280;27539;43.222;27.558;2023-05-08T07:33:09;100780.84;;;17.83;77.68
41866;BME280;27539;43.222;27.558;2023-05-08T07:35:38;100782.44;;;17.95;74.32
41866;BME280;27539;43.222;27.558;2023-05-08T07:38:04;100805.19;;;18.43;75.20
41866;BME280;27539;43.222;27.558;2023-05-08T07:40:30;100779.53;;;18.78;75.50
41866;BME280;27539;43.222;27.558;2023-05-08T07:42:55;100806.88;;;19.55;72.29
41866;BME280;27539;43.222;27.558;2023-05-08T07:45:21;100811.59;;;20.03;67.71
41866;BME280;27539;43.222;27.558;2023-05-08T07:47:54;100810.38;;;20.28;67.86
41866;BME280;27539;43.222;27.558;2023-05-08T07:50:21;100808.13;;;20.44;68.01
41866;BME280;27539;43.222;27.558;2023-05-08T07:52:47;100786.41;;;20.25;65.75
41866;BME280;27539;43.222;27.558;2023-05-08T07:55:13;100816.47;;;20.54;61.17
41866;BME280;27539;43.222;27.558;2023-05-08T07:57:40;100809.81;;;20.64;65.37
41866;BME280;27539;43.222;27.558;2023-05-08T08:00:07;100803.72;;;20.89;64.88
41866;BME280;27539;43.222;27.558;2023-05-08T08:02:33;100762.53;;;20.83;64.86
41866;BME280;27539;43.222;27.558;2023-05-08T08:04:58;100807.09;;;21.19;62.43
41866;BME280;27539;43.222;27.558;2023-05-08T08:07:24;100791.38;;;20.99;60.88
41866;BME280;27539;43.222;27.558;2023-05-08T08:09:50;100765.38;;;20.83;62.64
41866;BME280;27539;43.222;27.558;2023-05-08T08:12:15;100802.50;;;21.09;61.89
41866;BME280;27539;43.222;27.558;2023-05-08T08:14:41;100778.38;;;20.98;63.68
41866;BME280;27539;43.222;27.558;2023-05-08T08:17:06;100780.91;;;21.13;62.85
41866;BME280;27539;43.222;27.558;2023-05-08T08:19:32;100749.31;;;20.79;61.58
41866;BME280;27539;43.222;27.558;2023-05-08T08:21:57;100743.38;;;20.94;61.37
41866;BME280;27539;43.222;27.558;2023-05-08T08:24:23;100781.34;;;21.07;61.83
41866;BME280;27539;43.222;27.558;2023-05-08T08:26:48;100788.81;;;20.84;60.58
41866;BME280;27539;43.222;27.558;2023-05-08T08:29:14;100781.59;;;20.91;62.26
41866;BME280;27539;43.222;27.558;2023-05-08T08:31:39;100777.03;;;21.09;59.55
41866;BME280;27539;43.222;27.558;2023-05-08T08:34:05;100786.34;;;21.24;60.88
41866;BME280;27539;43.222;27.558;2023-05-08T08:36:30;100741.63;;;21.12;60.32
41866;BME280;27539;43.222;27.558;2023-05-08T08:38:56;100792.25;;;21.27;59.66
41866;BME280;27539;43.222;27.558;2023-05-08T08:41:22;100749.69;;;21.19;57.53
41866;BME280;27539;43.222;27.558;2023-05-08T08:43:48;100786.81;;;21.58;57.86
41866;BME280;27539;43.222;27.558;2023-05-08T08:46:13;100785.31;;;21.61;57.39
41866;BME280;27539;43.222;27.558;2023-05-08T08:48:44;100733.78;;;21.50;59.18
41866;BME280;27539;43.222;27.558;2023-05-08T08:51:44;100786.03;;;21.81;54.27
41866;BME280;27539;43.222;27.558;2023-05-08T08:54:12;100739.31;;;21.28;54.83
41866;BME280;27539;43.222;27.558;2023-05-08T08:56:39;100739.00;;;21.15;54.76
41866;BME280;27539;43.222;27.558;2023-05-08T08:59:07;100771.69;;;21.35;54.17
41866;BME280;27539;43.222;27.558;2023-05-08T09:01:35;100773.56;;;21.26;55.84
41866;BME280;27539;43.222;27.558;2023-05-08T09:04:03;100728.31;;;20.85;55.95
41866;BME280;27539;43.222;27.558;2023-05-08T09:06:29;100771.06;;;21.11;54.01
41866;BME280;27539;43.222;27.558;2023-05-08T09:08:55;100730.78;;;20.73;55.35
41866;BME280;27539;43.222;27.558;2023-05-08T09:11:25;100774.09;;;21.14;54.97
41866;BME280;27539;43.222;27.558;2023-05-08T09:13:51;100749.25;;;21.11;55.60
41866;BME280;27539;43.222;27.558;2023-05-08T09:16:17;100759.34;;;21.18;53.73
41866;BME280;27539;43.222;27.558;2023-05-08T09:18:42;100776.09;;;21.42;53.75
41866;BME280;27539;43.222;27.558;2023-05-08T09:21:08;100775.69;;;21.34;53.08
41866;BME280;27539;43.222;27.558;2023-05-08T09:24:00;100755.81;;;21.40;51.85
41866;BME280;27539;43.222;27.558;2023-05-08T09:26:33;100784.28;;;21.71;52.88
41866;BME280;27539;43.222;27.558;2023-05-08T09:29:18;100755.53;;;21.64;53.67
41866;BME280;27539;43.222;27.558;2023-05-08T09:31:50;100734.41;;;21.84;52.06
41866;BME280;27539;43.222;27.558;2023-05-08T09:34:28;100770.88;;;21.99;52.36
41866;BME280;27539;43.222;27.558;2023-05-08T09:36:55;100726.88;;;21.79;50.27
41866;BME280;27539;43.222;27.558;2023-05-08T09:39:34;100760.47;;;22.08;50.83
41866;BME280;27539;43.222;27.558;2023-05-08T09:42:03;100748.09;;;22.04;51.50
41866;BME280;27539;43.222;27.558;2023-05-08T09:44:48;100771.50;;;22.10;51.24
41866;BME280;27539;43.222;27.558;2023-05-08T09:47:15;100754.19;;;22.34;51.82
41866;BME280;27539;43.222;27.558;2023-05-08T09:50:00;100762.06;;;22.37;51.98
41866;BME280;27539;43.222;27.558;2023-05-08T09:52:26;100750.97;;;22.27;55.89
41866;BME280;27539;43.222;27.558;2023-05-08T09:55:08;100758.13;;;22.47;55.02
41866;BME280;27539;43.222;27.558;2023-05-08T09:57:36;100725.44;;;21.68;53.42
41866;BME280;27539;43.222;27.558;2023-05-08T10:02:28;100762.31;;;21.90;54.51
41866;BME280;27539;43.222;27.558;2023-05-08T10:04:54;100772.72;;;21.81;56.54
41866;BME280;27539;43.222;27.558;2023-05-08T10:07:34;100741.84;;;21.43;56.86
41866;BME280;27539;43.222;27.558;2023-05-08T10:10:05;100767.44;;;21.88;54.71
41866;BME280;27539;43.222;27.558;2023-05-08T10:12:32;100738.31;;;21.88;58.07
41866;BME280;27539;43.222;27.558;2023-05-08T10:14:57;100758.47;;;22.09;57.88
41866;BME280;27539;43.222;27.558;2023-05-08T10:17:37;100755.84;;;22.12;56.74
41866;BME280;27539;43.222;27.558;2023-05-08T10:20:06;100729.03;;;22.18;57.00
41866;BME280;27539;43.222;27.558;2023-05-08T10:22:35;100754.16;;;22.48;58.90
41866;BME280;27539;43.222;27.558;2023-05-08T10:25:02;100720.75;;;21.99;57.10
41866;BME280;27539;43.222;27.558;2023-05-08T10:27:40;100716.97;;;22.27;58.29
41866;BME280;27539;43.222;27.558;2023-05-08T10:30:12;100722.31;;;21.92;56.82
41866;BME280;27539;43.222;27.558;2023-05-08T10:32:42;100745.81;;;22.29;58.30
41866;BME280;27539;43.222;27.558;2023-05-08T10:35:09;100727.91;;;22.19;58.89
41866;BME280;27539;43.222;27.558;2023-05-08T10:37:36;100748.50;;;22.11;60.81
41866;BME280;27539;43.222;27.558;2023-05-08T10:40:03;100716.13;;;21.53;61.54
41866;BME280;27539;43.222;27.558;2023-05-08T10:42:29;100748.13;;;22.27;60.29
41866;BME280;27539;43.222;27.558;2023-05-08T10:44:55;100763.06;;;22.18;59.72
41866;BME280;27539;43.222;27.558;2023-05-08T10:50:32;100758.38;;;21.36;61.67
41866;BME280;27539;43.222;27.558;2023-05-08T10:52:56;100762.66;;;21.33;61.44
41866;BME280;27539;43.222;27.558;2023-05-08T10:55:32;100768.13;;;21.30;62.00
41866;BME280;27539;43.222;27.558;2023-05-08T11:03:40;100758.81;;;21.57;64.96
41866;BME280;27539;43.222;27.558;2023-05-08T11:06:06;100770.97;;;21.30;65.82
41866;BME280;27539;43.222;27.558;2023-05-08T11:08:42;100771.63;;;21.54;66.22
41866;BME280;27539;43.222;27.558;2023-05-08T11:13:47;100742.56;;;21.35;65.60
41866;BME280;27539;43.222;27.558;2023-05-08T11:16:14;100773.78;;;21.30;65.50
41866;BME280;27539;43.222;27.558;2023-05-08T11:24:49;100732.75;;;20.58;67.45
41866;BME280;27539;43.222;27.558;2023-05-08T11:27:16;100758.91;;;21.10;68.51
41866;BME280;27539;43.222;27.558;2023-05-08T11:29:42;100766.25;;;21.39;66.86
41866;BME280;27539;43.222;27.558;2023-05-08T11:32:09;100741.72;;;21.34;65.59
41866;BME280;27539;43.222;27.558;2023-05-08T11:39:42;100759.09;;;21.69;64.74
41866;BME280;27539;43.222;27.558;2023-05-08T11:45:03;100767.34;;;21.93;66.14
41866;BME280;27539;43.222;27.558;2023-05-08T11:47:49;100767.94;;;22.40;65.14
41866;BME280;27539;43.222;27.558;2023-05-08T11:50:25;100759.81;;;22.48;62.00
41866;BME280;27539;43.222;27.558;2023-05-08T11:52:50;100749.00;;;22.13;63.50
41866;BME280;27539;43.222;27.558;2023-05-08T11:55:16;100760.91;;;21.51;64.74
41866;BME280;27539;43.222;27.558;2023-05-08T11:57:43;100771.84;;;20.84;66.62
41866;BME280;27539;43.222;27.558;2023-05-08T12:00:10;100746.28;;;20.75;67.31
41866;BME280;27539;43.222;27.558;2023-05-08T12:02:40;100777.69;;;20.60;68.43
41866;BME280;27539;43.222;27.558;2023-05-08T12:05:09;100758.59;;;20.33;69.21
41866;BME280;27539;43.222;27.558;2023-05-08T12:07:45;100769.53;;;20.20;70.76
41866;BME280;27539;43.222;27.558;2023-05-08T12:10:11;100719.19;;;19.90;72.47
41866;BME280;27539;43.222;27.558;2023-05-08T12:12:41;100757.16;;;20.16;72.17
41866;BME280;27539;43.222;27.558;2023-05-08T12:17:32;100776.19;;;19.73;73.80
41866;BME280;27539;43.222;27.558;2023-05-08T12:20:11;100765.50;;;19.70;73.90
41866;BME280;27539;43.222;27.558;2023-05-08T12:22:38;100739.13;;;19.55;76.26
41866;BME280;27539;43.222;27.558;2023-05-08T12:25:06;100759.25;;;19.73;75.20
41866;BME280;27539;43.222;27.558;2023-05-08T12:27:32;100756.72;;;19.71;77.61
41866;BME280;27539;43.222;27.558;2023-05-08T12:29:57;100760.88;;;19.79;75.86
41866;BME280;27539;43.222;27.558;2023-05-08T12:32:23;100727.91;;;19.74;75.52
41866;BME280;27539;43.222;27.558;2023-05-08T12:34:50;100768.25;;;19.51;76.80
41866;BME280;27539;43.222;27.558;2023-05-08T12:37:26;100777.88;;;19.26;77.69
41866;BME280;27539;43.222;27.558;2023-05-08T12:39:52;100760.84;;;19.12;80.70
41866;BME280;27539;43.222;27.558;2023-05-08T12:42:17;100727.31;;;18.86;79.73
41866;BME280;27539;43.222;27.558;2023-05-08T12:44:49;100749.81;;;18.91;80.28
41866;BME280;27539;43.222;27.558;2023-05-08T12:47:17;100778.84;;;18.92;81.94
41866;BME280;27539;43.222;27.558;2023-05-08T12:49:44;100767.38;;;19.07;82.13
41866;BME280;27539;43.222;27.558;2023-05-08T12:52:13;100779.00;;;18.76;81.28
41866;BME280;27539;43.222;27.558;2023-05-08T12:54:45;100723.81;;;18.41;83.12
41866;BME280;27539;43.222;27.558;2023-05-08T12:57:18;100719.56;;;18.44;83.10
41866;BME280;27539;43.222;27.558;2023-05-08T12:59:45;100772.63;;;19.19;85.65
41866;BME280;27539;43.222;27.558;2023-05-08T13:02:19;100759.69;;;19.37;81.20
41866;BME280;27539;43.222;27.558;2023-05-08T13:04:52;100760.25;;;19.58;78.80
41866;BME280;27539;43.222;27.558;2023-05-08T13:07:18;100757.88;;;19.70;80.46
41866;BME280;27539;43.222;27.558;2023-05-08T13:10:04;100767.72;;;19.73;78.32
41866;BME280;27539;43.222;27.558;2023-05-08T13:12:30;100735.91;;;19.43;77.46
41866;BME280;27539;43.222;27.558;2023-05-08T13:14:55;100788.38;;;19.20;78.93
41866;BME280;27539;43.222;27.558;2023-05-08T13:17:21;100742.78;;;19.13;79.90
41866;BME280;27539;43.222;27.558;2023-05-08T13:19:46;100737.75;;;18.56;81.16
41866;BME280;27539;43.222;27.558;2023-05-08T13:22:12;100734.97;;;18.51;83.29
41866;BME280;27539;43.222;27.558;2023-05-08T13:24:37;100754.66;;;18.56;83.02
41866;BME280;27539;43.222;27.558;2023-05-08T13:27:02;100790.03;;;18.39;84.44
41866;BME280;27539;43.222;27.558;2023-05-08T13:29:28;100734.75;;;18.13;84.63
41866;BME280;27539;43.222;27.558;2023-05-08T13:31:53;100785.88;;;18.31;88.23
41866;BME280;27539;43.222;27.558;2023-05-08T13:34:19;100803.31;;;18.28;87.44